sensor_id;sensor_type;location;lat;lon;timestamp;pressure;altitude;pressure_sealevel;temperature;humidity
69570;BME280;56781;42.292;23.146;2022-10-16T00:00:16;96143.44;;;6.35;85.13
69570;BME280;56781;42.292;23.146;2022-10-16T00:03:01;96141.22;;;6.16;83.85
69570;BME280;56781;42.292;23.146;2022-10-16T00:05:47;96141.88;;;5.96;83.46
69570;BME280;56781;42.292;23.146;2022-10-16T00:08:25;96182.72;;;5.90;82.80
69570;BME280;56781;42.292;23.146;2022-10-16T00:11:08;96152.44;;;5.05;85.64
69570;BME280;56781;42.292;23.146;2022-10-16T00:14:14;96215.00;;;5.01;88.74
69570;BME280;56781;42.292;23.146;2022-10-16T00:16:53;96140.41;;;4.53;89.57
69570;BME280;56781;42.292;23.146;2022-10-16T00:19:44;96114.59;;;4.43;89.74
69570;BME280;56781;42.292;23.146;2022-10-16T00:22:15;96158.00;;;4.81;89.90
69570;BME280;56781;42.292;23.146;2022-10-16T00:24:43;96203.88;;;5.26;89.88
69570;BME280;56781;42.292;23.146;2022-10-16T00:27:12;96155.53;;;4.97;88.43
69570;BME280;56781;42.292;23.146;2022-10-16T00:29:59;96149.97;;;4.98;88.73
69570;BME280;56781;42.292;23.146;2022-10-16T00:32:49;96202.63;;;5.33;90.24
69570;BME280;56781;42.292;23.146;2022-10-16T00:35:40;96204.34;;;5.45;90.11
69570;BME280;56781;42.292;23.146;2022-10-16T00:38:18;96184.06;;;5.33;89.55
69570;BME280;56781;42.292;23.146;2022-10-16T00:41:07;96179.50;;;5.29;88.62
69570;BME280;56781;42.292;23.146;2022-10-16T00:43:58;96153.94;;;4.96;88.20
69570;BME280;56781;42.292;23.146;2022-10-16T00:46:57;96231.28;;;5.31;88.93
69570;BME280;56781;42.292;23.146;2022-10-16T00:49:38;96178.22;;;4.87;89.36
69570;BME280;56781;42.292;23.146;2022-10-16T00:52:23;96178.09;;;4.77;90.32
69570;BME280;56781;42.292;23.146;2022-10-16T00:55:12;96171.78;;;4.78;89.69
69570;BME280;56781;42.292;23.146;2022-10-16T00:57:41;96166.41;;;4.73;88.91
69570;BME280;56781;42.292;23.146;2022-10-16T01:00:23;96160.78;;;4.70;88.87
69570;BME280;56781;42.292;23.146;2022-10-16T01:03:26;96184.69;;;4.75;90.42
69570;BME280;56781;42.292;23.146;2022-10-16T01:06:35;96208.72;;;5.07;89.99
69570;BME280;56781;42.292;23.146;2022-10-16T01:09:23;96187.84;;;4.94;87.85
69570;BME280;56781;42.292;23.146;2022-10-16T01:12:18;96214.34;;;5.10;88.81
69570;BME280;56781;42.292;23.146;2022-10-16T01:18:53;96167.66;;;5.15;92.60
69570;BME280;56781;42.292;23.146;2022-10-16T01:21:49;96183.41;;;5.21;90.59
69570;BME280;56781;42.292;23.146;2022-10-16T01:24:46;96248.47;;;5.51;88.73
69570;BME280;56781;42.292;23.146;2022-10-16T01:27:34;96195.78;;;5.16;89.42
69570;BME280;56781;42.292;23.146;2022-10-16T01:30:43;96225.88;;;5.21;89.21
69570;BME280;56781;42.292;23.146;2022-10-16T01:33:24;96181.63;;;4.83;87.37
69570;BME280;56781;42.292;23.146;2022-10-16T01:36:31;96195.00;;;4.71;85.93
69570;BME280;56781;42.292;23.146;2022-10-16T01:39:09;96197.59;;;4.66;88.37
69570;BME280;56781;42.292;23.146;2022-10-16T01:42:17;96186.41;;;4.64;88.59
69570;BME280;56781;42.292;23.146;2022-10-16T01:45:01;96183.75;;;4.64;89.05
69570;BME280;56781;42.292;23.146;2022-10-16T01:48:00;96256.97;;;5.04;87.75
69570;BME280;56781;42.292;23.146;2022-10-16T01:51:03;96231.53;;;4.47;86.11
69570;BME280;56781;42.292;23.146;2022-10-16T01:53:53;96252.75;;;4.47;88.82
69570;BME280;56781;42.292;23.146;2022-10-16T01:56:34;96239.66;;;4.40;89.75
69570;BME280;56781;42.292;23.146;2022-10-16T01:59:37;96189.00;;;4.20;90.52
69570;BME280;56781;42.292;23.146;2022-10-16T02:02:36;96218.69;;;4.39;92.69
69570;BME280;56781;42.292;23.146;2022-10-16T02:05:49;96218.84;;;4.49;92.27
69570;BME280;56781;42.292;23.146;2022-10-16T02:08:56;96217.31;;;4.36;91.84
69570;BME280;56781;42.292;23.146;2022-10-16T02:11:36;96211.31;;;4.41;92.63
69570;BME280;56781;42.292;23.146;2022-10-16T02:14:10;96217.66;;;4.40;91.77
69570;BME280;56781;42.292;23.146;2022-10-16T02:16:46;96241.97;;;4.54;91.38
69570;BME280;56781;42.292;23.146;2022-10-16T02:19:25;96220.31;;;4.23;88.76
69570;BME280;56781;42.292;23.146;2022-10-16T02:22:14;96207.09;;;3.61;91.44
69570;BME280;56781;42.292;23.146;2022-10-16T02:25:05;96243.09;;;3.73;90.80
69570;BME280;56781;42.292;23.146;2022-10-16T02:28:08;96239.31;;;3.69;92.41
69570;BME280;56781;42.292;23.146;2022-10-16T02:30:54;96261.94;;;3.77;92.57
69570;BME280;56781;42.292;23.146;2022-10-16T02:33:26;96254.97;;;3.88;91.49
69570;BME280;56781;42.292;23.146;2022-10-16T02:36:04;96228.66;;;3.81;91.76
69570;BME280;56781;42.292;23.146;2022-10-16T02:38:47;96269.63;;;4.07;92.05
69570;BME280;56781;42.292;23.146;2022-10-16T02:41:15;96255.84;;;3.93;91.65
69570;BME280;56781;42.292;23.146;2022-10-16T02:43:57;96271.63;;;4.17;91.53
69570;BME280;56781;42.292;23.146;2022-10-16T02:46:44;96241.50;;;3.89;91.05
69570;BME280;56781;42.292;23.146;2022-10-16T02:49:15;96256.28;;;4.02;92.14
69570;BME280;56781;42.292;23.146;2022-10-16T02:52:06;96267.78;;;4.08;90.71
69570;BME280;56781;42.292;23.146;2022-10-16T02:54:36;96272.34;;;4.12;88.37
69570;BME280;56781;42.292;23.146;2022-10-16T02:57:28;96268.56;;;3.91;88.08
69570;BME280;56781;42.292;23.146;2022-10-16T03:00:09;96260.19;;;3.83;88.00
69570;BME280;56781;42.292;23.146;2022-10-16T03:02:48;96202.34;;;3.46;88.99
69570;BME280;56781;42.292;23.146;2022-10-16T03:05:36;96235.25;;;3.50;88.04
69570;BME280;56781;42.292;23.146;2022-10-16T03:08:31;96323.50;;;3.84;88.49
69570;BME280;56781;42.292;23.146;2022-10-16T03:11:11;96253.41;;;3.29;90.27
69570;BME280;56781;42.292;23.146;2022-10-16T03:13:59;96250.13;;;3.10;90.22
69570;BME280;56781;42.292;23.146;2022-10-16T03:16:32;96249.53;;;3.08;90.48
69570;BME280;56781;42.292;23.146;2022-10-16T03:19:08;96316.00;;;3.52;90.76
69570;BME280;56781;42.292;23.146;2022-10-16T03:21:51;96290.88;;;3.38;90.52
69570;BME280;56781;42.292;23.146;2022-10-16T03:24:57;96259.47;;;3.30;88.67
69570;BME280;56781;42.292;23.146;2022-10-16T03:27:33;96228.06;;;2.93;88.93
69570;BME280;56781;42.292;23.146;2022-10-16T03:30:31;96245.28;;;3.07;88.75
69570;BME280;56781;42.292;23.146;2022-10-16T03:33:31;96281.66;;;3.41;90.29
69570;BME280;56781;42.292;23.146;2022-10-16T03:36:32;96273.06;;;3.62;91.55
69570;BME280;56781;42.292;23.146;2022-10-16T03:39:25;96248.56;;;3.55;93.14
69570;BME280;56781;42.292;23.146;2022-10-16T03:41:55;96246.41;;;3.52;93.40
69570;BME280;56781;42.292;23.146;2022-10-16T03:44:37;96273.91;;;3.80;92.33
69570;BME280;56781;42.292;23.146;2022-10-16T03:47:12;96311.34;;;4.00;91.16
69570;BME280;56781;42.292;23.146;2022-10-16T03:50:08;96260.25;;;3.71;87.58
69570;BME280;56781;42.292;23.146;2022-10-16T03:56:21;96280.38;;;3.43;85.48
69570;BME280;56781;42.292;23.146;2022-10-16T03:58:54;96244.81;;;3.10;86.83
69570;BME280;56781;42.292;23.146;2022-10-16T04:01:33;96248.97;;;3.06;86.18
69570;BME280;56781;42.292;23.146;2022-10-16T04:04:16;96232.91;;;2.84;86.36
69570;BME280;56781;42.292;23.146;2022-10-16T04:07:00;96235.59;;;2.61;87.90
69570;BME280;56781;42.292;23.146;2022-10-16T04:09:58;96234.69;;;2.43;89.45
69570;BME280;56781;42.292;23.146;2022-10-16T04:12:46;96245.63;;;2.47;89.19
69570;BME280;56781;42.292;23.146;2022-10-16T04:15:54;96290.50;;;2.94;90.65
69570;BME280;56781;42.292;23.146;2022-10-16T04:21:54;96244.47;;;2.43;91.40
69570;BME280;56781;42.292;23.146;2022-10-16T04:24:52;96236.75;;;2.30;91.32
69570;BME280;56781;42.292;23.146;2022-10-16T04:27:20;96268.22;;;2.55;91.63
69570;BME280;56781;42.292;23.146;2022-10-16T04:30:29;96288.44;;;2.84;90.79
69570;BME280;56781;42.292;23.146;2022-10-16T04:37:02;96260.19;;;2.50;91.05
69570;BME280;56781;42.292;23.146;2022-10-16T04:40:30;96303.16;;;2.92;91.96
69570;BME280;56781;42.292;23.146;2022-10-16T04:43:31;96241.94;;;2.48;93.56
69570;BME280;56781;42.292;23.146;2022-10-16T04:46:05;96260.50;;;2.77;93.09
69570;BME280;56781;42.292;23.146;2022-10-16T04:49:03;96286.16;;;2.76;94.17
69570;BME280;56781;42.292;23.146;2022-10-16T04:52:03;96322.59;;;3.09;94.62
69570;BME280;56781;42.292;23.146;2022-10-16T04:54:42;96287.50;;;3.02;93.19
69570;BME280;56781;42.292;23.146;2022-10-16T04:57:25;96260.72;;;2.87;93.27
69570;BME280;56781;42.292;23.146;2022-10-16T04:59:57;96282.78;;;3.04;92.96
69570;BME280;56781;42.292;23.146;2022-10-16T05:02:50;96287.84;;;3.06;91.52
69570;BME280;56781;42.292;23.146;2022-10-16T05:05:48;96283.34;;;3.06;92.02
69570;BME280;56781;42.292;23.146;2022-10-16T05:12:05;96311.28;;;3.26;90.28
69570;BME280;56781;42.292;23.146;2022-10-16T05:18:12;96352.72;;;3.61;89.64
69570;BME280;56781;42.292;23.146;2022-10-16T05:21:02;96280.25;;;3.09;89.96
69570;BME280;56781;42.292;23.146;2022-10-16T05:23:54;96345.84;;;3.48;89.20
69570;BME280;56781;42.292;23.146;2022-10-16T05:27:08;96288.84;;;3.17;88.57
69570;BME280;56781;42.292;23.146;2022-10-16T05:30:07;96277.25;;;3.18;89.87
69570;BME280;56781;42.292;23.146;2022-10-16T05:32:40;96319.88;;;3.45;91.40
69570;BME280;56781;42.292;23.146;2022-10-16T05:38:57;96363.34;;;3.89;91.60
69570;BME280;56781;42.292;23.146;2022-10-16T05:41:25;96292.50;;;3.68;90.80
69570;BME280;56781;42.292;23.146;2022-10-16T05:44:13;96306.13;;;3.88;90.89
69570;BME280;56781;42.292;23.146;2022-10-16T05:47:03;96318.91;;;4.08;91.24
69570;BME280;56781;42.292;23.146;2022-10-16T05:49:45;96294.09;;;4.14;91.12
69570;BME280;56781;42.292;23.146;2022-10-16T05:52:40;96339.59;;;4.57;93.58
69570;BME280;56781;42.292;23.146;2022-10-16T05:55:45;96302.22;;;4.41;93.33
69570;BME280;56781;42.292;23.146;2022-10-16T05:58:34;96377.00;;;5.11;93.22
69570;BME280;56781;42.292;23.146;2022-10-16T06:01:16;96292.56;;;4.69;92.74
69570;BME280;56781;42.292;23.146;2022-10-16T06:03:47;96314.53;;;5.03;93.42
69570;BME280;56781;42.292;23.146;2022-10-16T06:06:35;96304.44;;;5.22;93.36
69570;BME280;56781;42.292;23.146;2022-10-16T06:09:36;96316.00;;;5.55;92.73
69570;BME280;56781;42.292;23.146;2022-10-16T06:12:37;96329.81;;;6.01;91.36
69570;BME280;56781;42.292;23.146;2022-10-16T06:15:32;96354.25;;;6.57;89.44
69570;BME280;56781;42.292;23.146;2022-10-16T06:17:59;96327.66;;;6.57;89.09
69570;BME280;56781;42.292;23.146;2022-10-16T06:20:38;96346.56;;;6.93;87.72
69570;BME280;56781;42.292;23.146;2022-10-16T06:23:23;96320.03;;;7.14;86.62
69570;BME280;56781;42.292;23.146;2022-10-16T06:26:11;96305.81;;;7.45;84.02
69570;BME280;56781;42.292;23.146;2022-10-16T06:28:45;96322.75;;;7.87;83.60
69570;BME280;56781;42.292;23.146;2022-10-16T06:31:22;96349.81;;;8.36;82.23
69570;BME280;56781;42.292;23.146;2022-10-16T06:34:00;96354.13;;;8.78;81.07
69570;BME280;56781;42.292;23.146;2022-10-16T06:36:58;96340.72;;;9.29;78.82
69570;BME280;56781;42.292;23.146;2022-10-16T06:39:57;96338.69;;;9.71;77.91
69570;BME280;56781;42.292;23.146;2022-10-16T06:42:55;96350.00;;;10.12;77.29
69570;BME280;56781;42.292;23.146;2022-10-16T06:45:54;96346.69;;;10.36;76.48
69570;BME280;56781;42.292;23.146;2022-10-16T06:48:53;96349.31;;;10.46;75.02
69570;BME280;56781;42.292;23.146;2022-10-16T06:51:26;96339.41;;;10.81;73.96
69570;BME280;56781;42.292;23.146;2022-10-16T06:54:17;96337.31;;;10.73;74.34
69570;BME280;56781;42.292;23.146;2022-10-16T06:56:44;96341.13;;;10.96;74.18
69570;BME280;56781;42.292;23.146;2022-10-16T06:59:22;96349.09;;;11.35;72.71
69570;BME280;56781;42.292;23.146;2022-10-16T07:02:19;96353.22;;;11.75;70.92
69570;BME280;56781;42.292;23.146;2022-10-16T07:05:07;96354.16;;;12.09;71.14
69570;BME280;56781;42.292;23.146;2022-10-16T07:08:06;96347.09;;;12.13;69.29
69570;BME280;56781;42.292;23.146;2022-10-16T07:10:40;96364.31;;;12.69;68.53
69570;BME280;56781;42.292;23.146;2022-10-16T07:13:11;96353.63;;;12.82;67.28
69570;BME280;56781;42.292;23.146;2022-10-16T07:15:41;96366.97;;;13.20;67.25
69570;BME280;56781;42.292;23.146;2022-10-16T07:18:11;96366.47;;;13.92;64.63
69570;BME280;56781;42.292;23.146;2022-10-16T07:21:14;96343.97;;;14.25;61.99
69570;BME280;56781;42.292;23.146;2022-10-16T07:23:58;96346.53;;;14.44;62.17
69570;BME280;56781;42.292;23.146;2022-10-16T07:26:50;96348.13;;;14.45;61.08
69570;BME280;56781;42.292;23.146;2022-10-16T07:29:21;96337.72;;;14.52;60.23
69570;BME280;56781;42.292;23.146;2022-10-16T07:31:55;96368.94;;;14.67;60.70
69570;BME280;56781;42.292;23.146;2022-10-16T07:34:26;96364.19;;;14.86;60.90
69570;BME280;56781;42.292;23.146;2022-10-16T07:36:57;96404.84;;;15.43;59.24
69570;BME280;56781;42.292;23.146;2022-10-16T07:39:24;96407.75;;;15.24;60.02
69570;BME280;56781;42.292;23.146;2022-10-16T07:41:52;96366.38;;;14.61;60.76
69570;BME280;56781;42.292;23.146;2022-10-16T07:44:29;96412.63;;;14.77;60.55
69570;BME280;56781;42.292;23.146;2022-10-16T07:47:01;96377.19;;;15.06;60.71
69570;BME280;56781;42.292;23.146;2022-10-16T07:49:34;96408.41;;;15.52;58.59
69570;BME280;56781;42.292;23.146;2022-10-16T07:52:03;96363.34;;;15.62;57.68
69570;BME280;56781;42.292;23.146;2022-10-16T07:54:31;96411.25;;;16.27;58.52
69570;BME280;56781;42.292;23.146;2022-10-16T07:56:58;96405.41;;;16.43;54.82
69570;BME280;56781;42.292;23.146;2022-10-16T07:59:25;96363.44;;;16.45;54.49
69570;BME280;56781;42.292;23.146;2022-10-16T08:01:53;96375.63;;;16.25;55.94
69570;BME280;56781;42.292;23.146;2022-10-16T08:04:19;96373.81;;;15.94;54.87
69570;BME280;56781;42.292;23.146;2022-10-16T08:06:47;96318.09;;;15.59;55.23
69570;BME280;56781;42.292;23.146;2022-10-16T08:09:15;96395.19;;;16.22;55.63
69570;BME280;56781;42.292;23.146;2022-10-16T08:11:42;96355.06;;;15.98;53.95
69570;BME280;56781;42.292;23.146;2022-10-16T08:14:09;96373.84;;;16.03;54.61
69570;BME280;56781;42.292;23.146;2022-10-16T08:16:37;96352.78;;;15.74;55.89
69570;BME280;56781;42.292;23.146;2022-10-16T08:19:04;96379.38;;;15.98;56.12
69570;BME280;56781;42.292;23.146;2022-10-16T08:21:32;96350.25;;;15.69;54.64
69570;BME280;56781;42.292;23.146;2022-10-16T08:23:59;96352.75;;;16.14;53.56
69570;BME280;56781;42.292;23.146;2022-10-16T08:26:27;96347.47;;;16.00;53.07
69570;BME280;56781;42.292;23.146;2022-10-16T08:28:55;96367.78;;;15.98;53.03
69570;BME280;56781;42.292;23.146;2022-10-16T08:31:23;96369.38;;;15.99;56.38
69570;BME280;56781;42.292;23.146;2022-10-16T08:33:50;96328.13;;;15.67;56.57
69570;BME280;56781;42.292;23.146;2022-10-16T08:36:19;96390.19;;;15.98;54.99
69570;BME280;56781;42.292;23.146;2022-10-16T08:38:49;96363.97;;;15.59;55.01
69570;BME280;56781;42.292;23.146;2022-10-16T08:44:31;96373.34;;;15.92;56.12
69570;BME280;56781;42.292;23.146;2022-10-16T08:47:21;96351.06;;;15.78;54.40
69570;BME280;56781;42.292;23.146;2022-10-16T08:49:57;96367.25;;;15.78;54.03
69570;BME280;56781;42.292;23.146;2022-10-16T08:52:29;96409.69;;;15.86;54.98
69570;BME280;56781;42.292;23.146;2022-10-16T08:54:58;96364.31;;;15.66;56.08
69570;BME280;56781;42.292;23.146;2022-10-16T08:57:26;96347.03;;;15.67;54.51
69570;BME280;56781;42.292;23.146;2022-10-16T09:00:00;96322.72;;;15.67;56.31
69570;BME280;56781;42.292;23.146;2022-10-16T09:02:39;96335.44;;;15.66;54.71
69570;BME280;56781;42.292;23.146;2022-10-16T09:05:49;96393.50;;;15.95;53.82
69570;BME280;56781;42.292;23.146;2022-10-16T09:08:32;96372.91;;;16.08;53.85
69570;BME280;56781;42.292;23.146;2022-10-16T09:11:17;96398.16;;;16.12;53.38
69570;BME280;56781;42.292;23.146;2022-10-16T09:16:30;96387.59;;;16.42;54.02
69570;BME280;56781;42.292;23.146;2022-10-16T09:19:25;96375.84;;;16.63;53.68
69570;BME280;56781;42.292;23.146;2022-10-16T09:22:16;96319.88;;;16.47;53.38
69570;BME280;56781;42.292;23.146;2022-10-16T09:24:44;96336.56;;;16.66;52.76
69570;BME280;56781;42.292;23.146;2022-10-16T09:27:22;96382.72;;;16.96;52.80
69570;BME280;56781;42.292;23.146;2022-10-16T09:29:56;96361.22;;;16.91;51.99
69570;BME280;56781;42.292;23.146;2022-10-16T09:32:25;96316.69;;;16.62;51.39
69570;BME280;56781;42.292;23.146;2022-10-16T09:35:00;96319.41;;;16.79;51.22
69570;BME280;56781;42.292;23.146;2022-10-16T09:37:28;96365.84;;;17.16;51.66
69570;BME280;56781;42.292;23.146;2022-10-16T09:39:55;96317.50;;;16.89;53.17
69570;BME280;56781;42.292;23.146;2022-10-16T09:42:33;96366.09;;;17.41;50.11
69570;BME280;56781;42.292;23.146;2022-10-16T09:45:23;96311.72;;;17.16;50.74
69570;BME280;56781;42.292;23.146;2022-10-16T09:47:54;96367.44;;;17.73;51.51
69570;BME280;56781;42.292;23.146;2022-10-16T09:50:28;96313.00;;;17.57;49.15
69570;BME280;56781;42.292;23.146;2022-10-16T09:53:11;96308.72;;;17.56;49.01
69570;BME280;56781;42.292;23.146;2022-10-16T09:55:52;96357.44;;;18.03;49.61
69570;BME280;56781;42.292;23.146;2022-10-16T09:58:22;96358.31;;;18.16;49.54
69570;BME280;56781;42.292;23.146;2022-10-16T10:00:53;96359.53;;;17.98;47.13
69570;BME280;56781;42.292;23.146;2022-10-16T10:03:40;96317.53;;;17.83;47.76
69570;BME280;56781;42.292;23.146;2022-10-16T10:06:40;96310.88;;;17.71;46.40
69570;BME280;56781;42.292;23.146;2022-10-16T10:09:36;96351.53;;;17.63;49.09
69570;BME280;56781;42.292;23.146;2022-10-16T10:12:05;96297.00;;;17.73;47.90
69570;BME280;56781;42.292;23.146;2022-10-16T10:14:39;96288.81;;;17.90;47.86
69570;BME280;56781;42.292;23.146;2022-10-16T10:17:13;96290.22;;;18.17;47.92
69570;BME280;56781;42.292;23.146;2022-10-16T10:22:26;96301.56;;;18.41;49.12
69570;BME280;56781;42.292;23.146;2022-10-16T10:33:43;96313.47;;;19.02;47.83
69570;BME280;56781;42.292;23.146;2022-10-16T10:36:25;96316.41;;;18.97;48.06
69570;BME280;56781;42.292;23.146;2022-10-16T10:47:24;96291.53;;;18.95;48.38
69570;BME280;56781;42.292;23.146;2022-10-16T10:53:38;96292.63;;;19.27;46.20
69570;BME280;56781;42.292;23.146;2022-10-16T11:03:42;96266.22;;;19.16;43.49
69570;BME280;56781;42.292;23.146;2022-10-16T11:06:32;96230.50;;;19.14;44.17
69570;BME280;56781;42.292;23.146;2022-10-16T11:09:41;96246.66;;;19.10;42.99
69570;BME280;56781;42.292;23.146;2022-10-16T11:12:47;96280.31;;;19.42;43.47
69570;BME280;56781;42.292;23.146;2022-10-16T11:15:47;96174.25;;;18.77;45.01
69570;BME280;56781;42.292;23.146;2022-10-16T11:21:44;96226.22;;;19.25;43.18
69570;BME280;56781;42.292;23.146;2022-10-16T11:28:16;96268.34;;;19.43;41.31
69570;BME280;56781;42.292;23.146;2022-10-16T11:34:49;96219.78;;;19.42;42.48
69570;BME280;56781;42.292;23.146;2022-10-16T11:37:32;96262.94;;;19.68;43.68
69570;BME280;56781;42.292;23.146;2022-10-16T11:40:31;96208.56;;;19.56;40.50
69570;BME280;56781;42.292;23.146;2022-10-16T11:43:41;96244.34;;;19.82;39.38
69570;BME280;56781;42.292;23.146;2022-10-16T11:46:16;96187.28;;;19.45;40.33
69570;BME280;56781;42.292;23.146;2022-10-16T11:49:08;96184.94;;;19.32;37.59
69570;BME280;56781;42.292;23.146;2022-10-16T11:58:13;96185.06;;;19.35;38.46
69570;BME280;56781;42.292;23.146;2022-10-16T12:07:49;96190.91;;;19.62;38.58
69570;BME280;56781;42.292;23.146;2022-10-16T12:10:48;96204.06;;;19.84;37.86
69570;BME280;56781;42.292;23.146;2022-10-16T12:13:43;96238.59;;;20.24;39.05
69570;BME280;56781;42.292;23.146;2022-10-16T12:16:57;96205.56;;;20.10;38.61
69570;BME280;56781;42.292;23.146;2022-10-16T12:23:23;96182.47;;;20.04;36.49
69570;BME280;56781;42.292;23.146;2022-10-16T12:26:52;96237.66;;;20.32;36.66
69570;BME280;56781;42.292;23.146;2022-10-16T12:29:41;96172.53;;;19.96;38.35
69570;BME280;56781;42.292;23.146;2022-10-16T12:35:31;96187.25;;;19.95;38.28
69570;BME280;56781;42.292;23.146;2022-10-16T12:38:50;96234.31;;;20.23;37.75
69570;BME280;56781;42.292;23.146;2022-10-16T12:42:01;96167.19;;;19.99;36.20
69570;BME280;56781;42.292;23.146;2022-10-16T12:44:49;96243.50;;;20.59;37.03
69570;BME280;56781;42.292;23.146;2022-10-16T12:50:39;96187.91;;;20.32;34.16
69570;BME280;56781;42.292;23.146;2022-10-16T12:53:26;96158.09;;;20.07;34.15
69570;BME280;56781;42.292;23.146;2022-10-16T12:56:32;96184.34;;;20.15;33.56
69570;BME280;56781;42.292;23.146;2022-10-16T12:59:31;96200.22;;;20.13;34.92
69570;BME280;56781;42.292;23.146;2022-10-16T13:06:38;96212.78;;;20.18;34.34
69570;BME280;56781;42.292;23.146;2022-10-16T13:15:19;96241.81;;;20.14;34.63
69570;BME280;56781;42.292;23.146;2022-10-16T13:18:39;96177.53;;;19.81;34.50
69570;BME280;56781;42.292;23.146;2022-10-16T13:21:54;96203.59;;;19.82;33.92
69570;BME280;56781;42.292;23.146;2022-10-16T13:25:18;96246.25;;;20.06;34.26
69570;BME280;56781;42.292;23.146;2022-10-16T13:28:19;96192.03;;;19.61;35.47
69570;BME280;56781;42.292;23.146;2022-10-16T13:31:29;96188.22;;;19.49;34.51
69570;BME280;56781;42.292;23.146;2022-10-16T13:34:29;96212.44;;;19.67;34.84
69570;BME280;56781;42.292;23.146;2022-10-16T13:37:27;96254.19;;;19.75;34.11
69570;BME280;56781;42.292;23.146;2022-10-16T13:40:31;96252.06;;;19.68;34.60
69570;BME280;56781;42.292;23.146;2022-10-16T13:43:47;96202.69;;;19.41;35.16
69570;BME280;56781;42.292;23.146;2022-10-16T13:46:58;96211.03;;;19.24;33.80
69570;BME280;56781;42.292;23.146;2022-10-16T13:49:46;96202.91;;;19.12;34.77
69570;BME280;56781;42.292;23.146;2022-10-16T13:52:39;96242.88;;;19.36;34.94
69570;BME280;56781;42.292;23.146;2022-10-16T13:55:40;96261.19;;;19.39;36.11
69570;BME280;56781;42.292;23.146;2022-10-16T13:58:42;96208.44;;;19.03;35.65
69570;BME280;56781;42.292;23.146;2022-10-16T14:01:43;96263.75;;;19.23;35.77
69570;BME280;56781;42.292;23.146;2022-10-16T14:04:37;96201.84;;;18.79;35.72
69570;BME280;56781;42.292;23.146;2022-10-16T14:07:48;96241.00;;;19.03;36.11
69570;BME280;56781;42.292;23.146;2022-10-16T14:11:10;96234.75;;;18.90;36.98
69570;BME280;56781;42.292;23.146;2022-10-16T14:17:31;96215.47;;;18.71;37.31
69570;BME280;56781;42.292;23.146;2022-10-16T14:20:04;96200.16;;;18.54;37.00
69570;BME280;56781;42.292;23.146;2022-10-16T14:23:22;96216.56;;;18.57;38.16
69570;BME280;56781;42.292;23.146;2022-10-16T14:26:27;96220.13;;;18.49;38.75
69570;BME280;56781;42.292;23.146;2022-10-16T14:29:27;96228.06;;;18.54;39.50
69570;BME280;56781;42.292;23.146;2022-10-16T14:32:25;96253.84;;;18.60;39.82
69570;BME280;56781;42.292;23.146;2022-10-16T14:39:13;96248.44;;;18.39;39.77
69570;BME280;56781;42.292;23.146;2022-10-16T14:41:59;96257.72;;;18.38;39.56
69570;BME280;56781;42.292;23.146;2022-10-16T14:45:01;96278.75;;;18.42;39.96
69570;BME280;56781;42.292;23.146;2022-10-16T14:48:19;96272.19;;;18.22;40.04
69570;BME280;56781;42.292;23.146;2022-10-16T14:54:59;96266.16;;;17.95;41.09
69570;BME280;56781;42.292;23.146;2022-10-16T14:57:58;96245.75;;;17.68;40.91
69570;BME280;56781;42.292;23.146;2022-10-16T15:00:49;96292.31;;;17.91;40.87
69570;BME280;56781;42.292;23.146;2022-10-16T15:03:43;96297.00;;;17.82;41.33
69570;BME280;56781;42.292;23.146;2022-10-16T15:07:01;96272.25;;;17.54;42.49
69570;BME280;56781;42.292;23.146;2022-10-16T15:09:55;96251.19;;;17.30;42.34
69570;BME280;56781;42.292;23.146;2022-10-16T15:12:46;96235.22;;;16.98;42.52
69570;BME280;56781;42.292;23.146;2022-10-16T15:15:44;96246.81;;;16.99;42.68
69570;BME280;56781;42.292;23.146;2022-10-16T15:18:43;96262.94;;;16.87;42.78
69570;BME280;56781;42.292;23.146;2022-10-16T15:21:41;96301.22;;;17.06;45.26
69570;BME280;56781;42.292;23.146;2022-10-16T15:24:19;96274.88;;;16.68;44.52
69570;BME280;56781;42.292;23.146;2022-10-16T15:27:37;96223.69;;;16.28;44.92
69570;BME280;56781;42.292;23.146;2022-10-16T15:34:10;96294.91;;;16.32;46.05
69570;BME280;56781;42.292;23.146;2022-10-16T15:37:03;96264.69;;;15.95;46.37
69570;BME280;56781;42.292;23.146;2022-10-16T15:40:01;96268.63;;;15.81;46.43
69570;BME280;56781;42.292;23.146;2022-10-16T15:43:07;96270.66;;;15.66;46.79
69570;BME280;56781;42.292;23.146;2022-10-16T15:46:09;96225.16;;;15.34;47.54
69570;BME280;56781;42.292;23.146;2022-10-16T15:49:25;96304.91;;;15.66;47.45
69570;BME280;56781;42.292;23.146;2022-10-16T15:52:22;96272.09;;;15.24;47.86
69570;BME280;56781;42.292;23.146;2022-10-16T15:55:01;96293.66;;;15.24;48.28
69570;BME280;56781;42.292;23.146;2022-10-16T15:58:17;96347.91;;;15.54;48.93
69570;BME280;56781;42.292;23.146;2022-10-16T16:01:00;96328.34;;;15.17;48.79
69570;BME280;56781;42.292;23.146;2022-10-16T16:03:54;96354.47;;;15.30;49.74
69570;BME280;56781;42.292;23.146;2022-10-16T16:10:40;96320.66;;;14.79;49.61
69570;BME280;56781;42.292;23.146;2022-10-16T16:13:20;96320.72;;;14.65;49.52
69570;BME280;56781;42.292;23.146;2022-10-16T16:16:38;96338.41;;;14.71;50.16
69570;BME280;56781;42.292;23.146;2022-10-16T16:19:54;96365.09;;;14.81;50.29
69570;BME280;56781;42.292;23.146;2022-10-16T16:23:27;96322.78;;;14.46;50.15
69570;BME280;56781;42.292;23.146;2022-10-16T16:26:47;96377.81;;;14.67;50.83
69570;BME280;56781;42.292;23.146;2022-10-16T16:30:06;96373.06;;;14.50;51.03
69570;BME280;56781;42.292;23.146;2022-10-16T16:36:31;96305.97;;;13.62;52.53
69570;BME280;56781;42.292;23.146;2022-10-16T16:50:06;96379.28;;;13.40;54.50
69570;BME280;56781;42.292;23.146;2022-10-16T16:53:34;96446.22;;;13.74;54.69
69570;BME280;56781;42.292;23.146;2022-10-16T17:10:44;96429.50;;;13.45;55.11
69570;BME280;56781;42.292;23.146;2022-10-16T17:13:38;96460.31;;;13.52;54.97
69570;BME280;56781;42.292;23.146;2022-10-16T17:20:03;96426.41;;;13.19;54.63